SWA492 KRDU-KBWI
Flight info
| Callsign | SWA492 |
|---|---|
| Flight time | 0h 41m |
| Altitude | 25000 |
| Route | BEXGO5 BOUSY THHMP RAVNN8 |
| Aircraft | B737/M-SADE2E3GIJ4RWZ/LB1D1 |
Departure
| Time | 2026-05-07 01:57 |
|---|---|
| Airport | Raleigh-Durham International Airport (KRDU) |
Arrival
| Time | 2026-05-07 02:39 |
|---|---|
| Airport | Baltimore/Washington International Thurgood Marshall Airport (KBWI) |
| Time | Latitude | Longitude | Altitude | Speed | Heading |
|---|---|---|---|---|---|
| 2026-05-07 01:19 | 35.87369 | -78.78980 | 421 ft | 0 kts | 315° |
| 2026-05-07 01:43 | 35.87366 | -78.78976 | 434 ft | 3 kts | 315° |
| 2026-05-07 01:43 | 35.87347 | -78.78953 | 427 ft | 4 kts | 315° |
| 2026-05-07 01:44 | 35.87328 | -78.78929 | 420 ft | 4 kts | 315° |
| 2026-05-07 01:44 | 35.87312 | -78.78909 | 420 ft | 0 kts | 315° |
| 2026-05-07 01:46 | 35.87319 | -78.78918 | 422 ft | 3 kts | 315° |
| 2026-05-07 01:47 | 35.87319 | -78.78919 | 422 ft | 0 kts | 315° |
| 2026-05-07 01:47 | 35.87320 | -78.78919 | 422 ft | 0 kts | 317° |
| 2026-05-07 01:47 | 35.87331 | -78.78917 | 420 ft | 3 kts | 18° |
| 2026-05-07 01:48 | 35.87351 | -78.78883 | 434 ft | 7 kts | 61° |
| 2026-05-07 01:48 | 35.87376 | -78.78828 | 430 ft | 7 kts | 61° |
| 2026-05-07 01:48 | 35.87405 | -78.78768 | 427 ft | 9 kts | 54° |
| 2026-05-07 01:48 | 35.87445 | -78.78714 | 434 ft | 8 kts | 46° |
| 2026-05-07 01:49 | 35.87495 | -78.78651 | 431 ft | 13 kts | 44° |
| 2026-05-07 01:49 | 35.87562 | -78.78571 | 430 ft | 14 kts | 45° |
| 2026-05-07 01:49 | 35.87632 | -78.78484 | 434 ft | 14 kts | 45° |
| 2026-05-07 01:49 | 35.87701 | -78.78397 | 434 ft | 14 kts | 45° |
| 2026-05-07 01:50 | 35.87772 | -78.78311 | 423 ft | 15 kts | 45° |
| 2026-05-07 01:50 | 35.87848 | -78.78217 | 434 ft | 16 kts | 45° |
| 2026-05-07 01:50 | 35.87916 | -78.78136 | 428 ft | 8 kts | 46° |
| 2026-05-07 01:50 | 35.87944 | -78.78101 | 420 ft | 0 kts | 45° |
| 2026-05-07 01:52 | 35.87952 | -78.78090 | 427 ft | 3 kts | 45° |
| 2026-05-07 01:52 | 35.87966 | -78.78074 | 424 ft | 1 kts | 44° |
| 2026-05-07 01:53 | 35.87975 | -78.78059 | 434 ft | 3 kts | 59° |
| 2026-05-07 01:53 | 35.87974 | -78.78032 | 427 ft | 4 kts | 115° |
| 2026-05-07 01:53 | 35.87958 | -78.78008 | 426 ft | 4 kts | 134° |
| 2026-05-07 01:53 | 35.87941 | -78.77986 | 436 ft | 4 kts | 135° |
| 2026-05-07 01:54 | 35.87917 | -78.77967 | 437 ft | 4 kts | 155° |
| 2026-05-07 01:54 | 35.87891 | -78.77975 | 432 ft | 1 kts | 218° |
| 2026-05-07 01:54 | 35.87887 | -78.77979 | 433 ft | 0 kts | 218° |
| 2026-05-07 01:54 | 35.87886 | -78.77980 | 433 ft | 0 kts | 218° |
| 2026-05-07 01:56 | 35.87884 | -78.77983 | 433 ft | 1 kts | 224° |
| 2026-05-07 01:56 | 35.87883 | -78.77984 | 433 ft | 0 kts | 225° |
| 2026-05-07 01:56 | 35.87882 | -78.77986 | 433 ft | 0 kts | 225° |
| 2026-05-07 01:56 | 35.87857 | -78.78016 | 436 ft | 25 kts | 223° |
| 2026-05-07 01:57 | 35.87534 | -78.78413 | 433 ft | 103 kts | 225° |
| 2026-05-07 01:57 | 35.86879 | -78.79219 | 547 ft | 153 kts | 226° |
| 2026-05-07 01:57 | 35.86121 | -78.80236 | 1182 ft | 165 kts | 228° |
| 2026-05-07 01:57 | 35.85396 | -78.81223 | 2304 ft | 144 kts | 225° |
| 2026-05-07 01:58 | 35.84678 | -78.82100 | 3033 ft | 154 kts | 225° |
| 2026-05-07 01:58 | 35.83824 | -78.83094 | 3317 ft | 186 kts | 225° |
| 2026-05-07 01:58 | 35.82811 | -78.84259 | 3586 ft | 210 kts | 225° |
| 2026-05-07 01:58 | 35.81654 | -78.85565 | 3947 ft | 236 kts | 225° |
| 2026-05-07 01:59 | 35.80438 | -78.86913 | 4806 ft | 238 kts | 225° |
| 2026-05-07 01:59 | 35.79220 | -78.88357 | 5702 ft | 242 kts | 238° |
| 2026-05-07 01:59 | 35.78641 | -78.90261 | 6724 ft | 245 kts | 266° |
| 2026-05-07 01:59 | 35.78940 | -78.92318 | 7883 ft | 251 kts | 292° |
| 2026-05-07 02:00 | 35.80058 | -78.94023 | 8934 ft | 267 kts | 317° |
| 2026-05-07 02:00 | 35.81806 | -78.94978 | 9971 ft | 288 kts | 343° |
| 2026-05-07 02:00 | 35.83889 | -78.94947 | 10707 ft | 318 kts | 5° |
| 2026-05-07 02:00 | 35.86070 | -78.93920 | 11129 ft | 352 kts | 25° |
| 2026-05-07 02:01 | 35.88032 | -78.92038 | 11735 ft | 364 kts | 39° |
| 2026-05-07 02:01 | 35.89840 | -78.89815 | 11990 ft | 367 kts | 42° |
| 2026-05-07 02:01 | 35.91603 | -78.87503 | 11990 ft | 370 kts | 43° |
| 2026-05-07 02:01 | 35.93344 | -78.85189 | 11996 ft | 368 kts | 43° |
| 2026-05-07 02:02 | 35.95093 | -78.82880 | 11992 ft | 368 kts | 43° |
| 2026-05-07 02:02 | 35.96854 | -78.80581 | 12020 ft | 371 kts | 43° |
| 2026-05-07 02:02 | 35.98655 | -78.78254 | 12739 ft | 377 kts | 42° |
| 2026-05-07 02:02 | 36.00471 | -78.75916 | 13843 ft | 377 kts | 42° |
| 2026-05-07 02:03 | 36.02298 | -78.73571 | 14700 ft | 382 kts | 41° |
| 2026-05-07 02:03 | 36.04136 | -78.71219 | 15459 ft | 389 kts | 40° |
| 2026-05-07 02:03 | 36.06030 | -78.68794 | 16264 ft | 395 kts | 40° |
| 2026-05-07 02:03 | 36.07944 | -78.66340 | 17120 ft | 399 kts | 39° |
| 2026-05-07 02:04 | 36.09881 | -78.63852 | 17964 ft | 404 kts | 39° |
| 2026-05-07 02:04 | 36.11844 | -78.61329 | 18716 ft | 409 kts | 39° |
| 2026-05-07 02:04 | 36.13829 | -78.58777 | 19433 ft | 414 kts | 39° |
| 2026-05-07 02:04 | 36.15840 | -78.56190 | 20188 ft | 418 kts | 39° |
| 2026-05-07 02:05 | 36.18133 | -78.53238 | 21030 ft | 423 kts | 39° |
| 2026-05-07 02:05 | 36.19911 | -78.50947 | 21653 ft | 428 kts | 40° |
| 2026-05-07 02:05 | 36.21995 | -78.48263 | 22217 ft | 437 kts | 40° |
| 2026-05-07 02:05 | 36.24112 | -78.45530 | 22915 ft | 441 kts | 40° |
| 2026-05-07 02:06 | 36.26242 | -78.42780 | 23634 ft | 444 kts | 40° |
| 2026-05-07 02:06 | 36.28443 | -78.40089 | 24163 ft | 445 kts | 34° |
| 2026-05-07 02:06 | 36.30875 | -78.37680 | 24521 ft | 451 kts | 30° |
| 2026-05-07 02:06 | 36.33425 | -78.35404 | 24930 ft | 454 kts | 28° |
| 2026-05-07 02:07 | 36.36024 | -78.33126 | 24942 ft | 459 kts | 28° |
| 2026-05-07 02:07 | 36.41271 | -78.28394 | 24967 ft | 481 kts | 30° |
| 2026-05-07 02:07 | 36.44020 | -78.25836 | 24966 ft | 493 kts | 30° |
| 2026-05-07 02:08 | 36.46738 | -78.23287 | 24959 ft | 500 kts | 30° |
| 2026-05-07 02:08 | 36.49514 | -78.20680 | 24945 ft | 500 kts | 30° |
| 2026-05-07 02:08 | 36.52284 | -78.18074 | 24935 ft | 499 kts | 31° |
| 2026-05-07 02:08 | 36.55049 | -78.15466 | 24933 ft | 498 kts | 31° |
| 2026-05-07 02:09 | 36.57802 | -78.12865 | 25000 ft | 498 kts | 31° |
| 2026-05-07 02:09 | 36.60556 | -78.10261 | 25002 ft | 497 kts | 31° |
| 2026-05-07 02:09 | 36.63309 | -78.07656 | 25003 ft | 496 kts | 31° |
| 2026-05-07 02:09 | 36.66060 | -78.05052 | 25014 ft | 498 kts | 30° |
| 2026-05-07 02:10 | 36.68820 | -78.02438 | 25014 ft | 499 kts | 30° |
| 2026-05-07 02:10 | 36.71585 | -77.99815 | 25015 ft | 499 kts | 31° |
| 2026-05-07 02:10 | 36.74348 | -77.97192 | 25010 ft | 500 kts | 31° |
| 2026-05-07 02:10 | 36.77114 | -77.94563 | 24992 ft | 500 kts | 31° |
| 2026-05-07 02:11 | 36.79881 | -77.91931 | 24983 ft | 500 kts | 31° |
| 2026-05-07 02:11 | 36.82646 | -77.89304 | 24975 ft | 499 kts | 30° |
| 2026-05-07 02:11 | 36.85423 | -77.86809 | 24994 ft | 497 kts | 28° |
| 2026-05-07 02:11 | 36.88271 | -77.84380 | 24938 ft | 496 kts | 27° |
| 2026-05-07 02:12 | 36.91139 | -77.81983 | 24936 ft | 496 kts | 27° |
| 2026-05-07 02:12 | 36.94014 | -77.79580 | 24958 ft | 497 kts | 27° |
| 2026-05-07 02:12 | 36.96877 | -77.77167 | 24947 ft | 497 kts | 27° |
| 2026-05-07 02:12 | 36.99739 | -77.74733 | 24944 ft | 497 kts | 27° |
| 2026-05-07 02:13 | 37.02594 | -77.72288 | 24937 ft | 497 kts | 27° |
| 2026-05-07 02:13 | 37.05441 | -77.69837 | 24938 ft | 498 kts | 28° |
| 2026-05-07 02:13 | 37.08294 | -77.67376 | 24970 ft | 498 kts | 27° |
| 2026-05-07 02:13 | 37.11151 | -77.64909 | 24947 ft | 500 kts | 27° |
| 2026-05-07 02:14 | 37.14016 | -77.62434 | 24949 ft | 500 kts | 27° |
| 2026-05-07 02:14 | 37.16885 | -77.59955 | 24946 ft | 501 kts | 27° |
| 2026-05-07 02:14 | 37.19753 | -77.57474 | 24935 ft | 501 kts | 27° |
| 2026-05-07 02:14 | 37.22583 | -77.55024 | 24935 ft | 501 kts | 27° |
| 2026-05-07 02:15 | 37.25447 | -77.52542 | 24936 ft | 501 kts | 27° |
| 2026-05-07 02:15 | 37.28309 | -77.50060 | 24931 ft | 500 kts | 27° |
| 2026-05-07 02:15 | 37.31176 | -77.47571 | 24948 ft | 501 kts | 27° |
| 2026-05-07 02:15 | 37.34045 | -77.45079 | 24941 ft | 502 kts | 27° |
| 2026-05-07 02:16 | 37.36915 | -77.42583 | 24942 ft | 502 kts | 27° |
| 2026-05-07 02:16 | 37.39787 | -77.40082 | 24935 ft | 503 kts | 27° |
| 2026-05-07 02:16 | 37.42666 | -77.37572 | 24918 ft | 503 kts | 27° |
| 2026-05-07 02:16 | 37.45537 | -77.35069 | 24917 ft | 503 kts | 27° |
| 2026-05-07 02:17 | 37.48443 | -77.32646 | 24907 ft | 497 kts | 21° |
| 2026-05-07 02:17 | 37.51595 | -77.31122 | 24951 ft | 477 kts | 4° |
| 2026-05-07 02:17 | 37.54783 | -77.30351 | 24920 ft | 469 kts | 1° |
| 2026-05-07 02:17 | 37.57931 | -77.29675 | 24903 ft | 449 kts | 0° |
| 2026-05-07 02:18 | 37.60952 | -77.29021 | 24709 ft | 436 kts | 0° |
| 2026-05-07 02:18 | 37.63921 | -77.28356 | 24295 ft | 430 kts | 0° |
| 2026-05-07 02:18 | 37.66848 | -77.27672 | 23770 ft | 425 kts | 1° |
| 2026-05-07 02:18 | 37.69734 | -77.26980 | 23211 ft | 420 kts | 1° |
| 2026-05-07 02:19 | 37.72577 | -77.26283 | 23009 ft | 415 kts | 1° |
| 2026-05-07 02:19 | 37.75406 | -77.25556 | 22939 ft | 414 kts | 2° |
| 2026-05-07 02:19 | 37.78217 | -77.24821 | 22920 ft | 412 kts | 2° |
| 2026-05-07 02:19 | 37.81030 | -77.24086 | 22922 ft | 413 kts | 2° |
| 2026-05-07 02:20 | 37.83805 | -77.23363 | 22919 ft | 413 kts | 2° |
| 2026-05-07 02:20 | 37.86621 | -77.22633 | 22891 ft | 414 kts | 1° |
| 2026-05-07 02:20 | 37.89449 | -77.21903 | 22901 ft | 415 kts | 1° |
| 2026-05-07 02:20 | 37.92272 | -77.21166 | 22643 ft | 415 kts | 2° |
| 2026-05-07 02:21 | 37.95092 | -77.20430 | 22274 ft | 411 kts | 2° |
| 2026-05-07 02:21 | 37.97880 | -77.19700 | 21924 ft | 407 kts | 1° |
| 2026-05-07 02:21 | 38.00641 | -77.18980 | 21576 ft | 403 kts | 1° |
| 2026-05-07 02:21 | 38.03380 | -77.18267 | 21232 ft | 400 kts | 2° |
| 2026-05-07 02:22 | 38.06102 | -77.17558 | 20903 ft | 398 kts | 2° |
| 2026-05-07 02:22 | 38.08810 | -77.16853 | 20424 ft | 399 kts | 2° |
| 2026-05-07 02:22 | 38.11500 | -77.16153 | 19946 ft | 401 kts | 2° |
| 2026-05-07 02:22 | 38.14233 | -77.15439 | 19467 ft | 400 kts | 2° |
| 2026-05-07 02:23 | 38.16940 | -77.14727 | 18970 ft | 395 kts | 3° |
| 2026-05-07 02:23 | 38.19614 | -77.14023 | 18504 ft | 390 kts | 2° |
| 2026-05-07 02:23 | 38.22251 | -77.13331 | 17981 ft | 386 kts | 2° |
| 2026-05-07 02:23 | 38.24867 | -77.12645 | 17489 ft | 380 kts | 2° |
| 2026-05-07 02:24 | 38.27436 | -77.11970 | 17116 ft | 374 kts | 2° |
| 2026-05-07 02:24 | 38.29973 | -77.11305 | 16739 ft | 372 kts | 3° |
| 2026-05-07 02:24 | 38.32514 | -77.10641 | 16331 ft | 374 kts | 3° |
| 2026-05-07 02:24 | 38.35065 | -77.09972 | 15920 ft | 376 kts | 4° |
| 2026-05-07 02:25 | 38.37535 | -77.08859 | 15470 ft | 393 kts | 25° |
| 2026-05-07 02:25 | 38.39808 | -77.06893 | 15075 ft | 395 kts | 30° |
| 2026-05-07 02:25 | 38.42039 | -77.04844 | 14624 ft | 394 kts | 31° |
| 2026-05-07 02:25 | 38.44245 | -77.02816 | 14177 ft | 388 kts | 31° |
| 2026-05-07 02:26 | 38.46430 | -77.00829 | 13746 ft | 382 kts | 30° |
| 2026-05-07 02:26 | 38.48590 | -76.98889 | 13258 ft | 377 kts | 30° |
| 2026-05-07 02:26 | 38.50729 | -76.96980 | 12813 ft | 374 kts | 30° |
| 2026-05-07 02:26 | 38.52851 | -76.95088 | 12388 ft | 370 kts | 30° |
| 2026-05-07 02:27 | 38.54950 | -76.93204 | 11979 ft | 368 kts | 32° |
| 2026-05-07 02:27 | 38.56916 | -76.91106 | 11616 ft | 369 kts | 39° |
| 2026-05-07 02:27 | 38.58781 | -76.88851 | 11269 ft | 370 kts | 41° |
| 2026-05-07 02:27 | 38.60632 | -76.86553 | 10905 ft | 371 kts | 41° |
| 2026-05-07 02:28 | 38.62465 | -76.84289 | 10568 ft | 363 kts | 40° |
| 2026-05-07 02:28 | 38.64280 | -76.82077 | 10209 ft | 357 kts | 40° |
| 2026-05-07 02:28 | 38.66069 | -76.79919 | 9917 ft | 346 kts | 40° |
| 2026-05-07 02:28 | 38.67760 | -76.77884 | 9908 ft | 322 kts | 40° |
| 2026-05-07 02:29 | 38.69388 | -76.75929 | 9290 ft | 322 kts | 40° |
| 2026-05-07 02:29 | 38.70889 | -76.73912 | 8902 ft | 315 kts | 54° |
| 2026-05-07 02:29 | 38.71973 | -76.71507 | 8622 ft | 310 kts | 61° |
| 2026-05-07 02:29 | 38.72988 | -76.69074 | 8312 ft | 311 kts | 60° |
| 2026-05-07 02:30 | 38.74017 | -76.66645 | 8019 ft | 311 kts | 60° |
| 2026-05-07 02:30 | 38.75060 | -76.64219 | 7712 ft | 310 kts | 59° |
| 2026-05-07 02:30 | 38.76102 | -76.61813 | 7398 ft | 307 kts | 59° |
| 2026-05-07 02:30 | 38.77174 | -76.59480 | 7109 ft | 302 kts | 50° |
| 2026-05-07 02:31 | 38.78729 | -76.57781 | 6846 ft | 287 kts | 23° |
| 2026-05-07 02:31 | 38.80513 | -76.56969 | 6789 ft | 261 kts | 7° |
| 2026-05-07 02:31 | 38.82251 | -76.56499 | 6413 ft | 256 kts | 5° |
| 2026-05-07 02:31 | 38.83977 | -76.56058 | 6100 ft | 250 kts | 5° |
| 2026-05-07 02:32 | 38.85660 | -76.55851 | 5828 ft | 235 kts | 350° |
| 2026-05-07 02:32 | 38.87277 | -76.56001 | 5613 ft | 234 kts | 349° |
| 2026-05-07 02:32 | 38.88900 | -76.56142 | 5385 ft | 234 kts | 350° |
| 2026-05-07 02:32 | 38.90495 | -76.56265 | 5177 ft | 232 kts | 351° |
| 2026-05-07 02:33 | 38.92124 | -76.56385 | 4917 ft | 232 kts | 351° |
| 2026-05-07 02:33 | 38.93732 | -76.56491 | 4651 ft | 232 kts | 352° |
| 2026-05-07 02:33 | 38.95322 | -76.56590 | 4371 ft | 231 kts | 352° |
| 2026-05-07 02:33 | 38.96919 | -76.56689 | 4094 ft | 228 kts | 352° |
| 2026-05-07 02:34 | 38.98479 | -76.56783 | 3825 ft | 222 kts | 353° |
| 2026-05-07 02:34 | 39.00007 | -76.56878 | 3560 ft | 217 kts | 353° |
| 2026-05-07 02:34 | 39.01507 | -76.56971 | 3306 ft | 215 kts | 354° |
| 2026-05-07 02:34 | 39.02982 | -76.57060 | 3110 ft | 207 kts | 353° |
| 2026-05-07 02:35 | 39.04372 | -76.57142 | 3001 ft | 193 kts | 353° |
| 2026-05-07 02:35 | 39.05655 | -76.57219 | 2980 ft | 176 kts | 353° |
| 2026-05-07 02:35 | 39.06793 | -76.57455 | 2851 ft | 161 kts | 330° |
| 2026-05-07 02:35 | 39.07745 | -76.58226 | 2488 ft | 163 kts | 325° |
| 2026-05-07 02:36 | 39.08700 | -76.59063 | 2065 ft | 170 kts | 324° |
| 2026-05-07 02:36 | 39.09657 | -76.59945 | 1802 ft | 166 kts | 324° |
| 2026-05-07 02:36 | 39.10560 | -76.60787 | 1574 ft | 154 kts | 326° |
| 2026-05-07 02:36 | 39.11400 | -76.61567 | 1362 ft | 143 kts | 324° |
| 2026-05-07 02:37 | 39.12171 | -76.62285 | 1226 ft | 133 kts | 327° |
| 2026-05-07 02:37 | 39.12917 | -76.62978 | 1011 ft | 130 kts | 327° |
| 2026-05-07 02:37 | 39.13664 | -76.63673 | 841 ft | 136 kts | 325° |
| 2026-05-07 02:37 | 39.14447 | -76.64403 | 679 ft | 141 kts | 325° |
| 2026-05-07 02:38 | 39.15267 | -76.65163 | 477 ft | 149 kts | 324° |
| 2026-05-07 02:38 | 39.16138 | -76.65959 | 293 ft | 152 kts | 323° |
| 2026-05-07 02:38 | 39.16974 | -76.66763 | 150 ft | 142 kts | 322° |
| 2026-05-07 02:38 | 39.17626 | -76.67347 | 144 ft | 74 kts | 325° |
| 2026-05-07 02:39 | 39.17828 | -76.67466 | 143 ft | 12 kts | 45° |
| 2026-05-07 02:39 | 39.17831 | -76.67461 | 144 ft | 0 kts | 49° |
| 2026-05-07 02:39 | 39.17834 | -76.67457 | 144 ft | 2 kts | 49° |
| 2026-05-07 02:39 | 39.17841 | -76.67446 | 144 ft | 2 kts | 50° |
| 2026-05-07 02:40 | 39.17848 | -76.67436 | 145 ft | 1 kts | 50° |
| 2026-05-07 02:40 | 39.17855 | -76.67427 | 145 ft | 1 kts | 37° |
| 2026-05-07 02:40 | 39.17881 | -76.67424 | 147 ft | 5 kts | 347° |
| 2026-05-07 02:40 | 39.17936 | -76.67467 | 147 ft | 14 kts | 326° |
| 2026-05-07 02:41 | 39.18015 | -76.67459 | 151 ft | 11 kts | 13° |
| 2026-05-07 02:41 | 39.18083 | -76.67491 | 152 ft | 10 kts | 325° |
| 2026-05-07 02:41 | 39.18145 | -76.67509 | 153 ft | 10 kts | 30° |
| 2026-05-07 02:41 | 39.18177 | -76.67447 | 154 ft | 6 kts | 98° |
| 2026-05-07 02:42 | 39.18158 | -76.67421 | 154 ft | 2 kts | 139° |
| 2026-05-07 02:42 | 39.18146 | -76.67410 | 154 ft | 2 kts | 144° |
| 2026-05-07 02:42 | 39.18144 | -76.67408 | 154 ft | 0 kts | 144° |